Time;durP1;ratioP1;P1;durP2;ratioP2;P2;SDS_P1;SDS_P2;PMS_P1;PMS_P2;Temp;Humidity;BMP_temperature;BMP_pressure;BME280_temperature;BME280_humidity;BME280_pressure;Samples;Min_cycle;Max_cycle;Signal;HPM_P1;HPM_P2
2022/06/06 00:02:05;;;;;;;12.10;9.43;;;;;;;20.55;58.36;101335.06;5054299;28;20029;-67
2022/06/06 00:04:31;;;;;;;12.48;9.43;;;;;;;20.55;58.48;101335.06;5053429;28;20112;-67
2022/06/06 00:07:01;;;;;;;12.40;9.82;;;;;;;20.52;58.14;101325.59;5058480;28;20059;-67
2022/06/06 00:09:27;;;;;;;11.48;9.48;;;;;;;20.53;58.05;101332.56;5058639;28;20514;-67
2022/06/06 00:11:58;;;;;;;12.95;9.32;;;;;;;20.53;58.23;101335.19;5052777;28;20044;-69
2022/06/06 00:14:24;;;;;;;12.00;9.18;;;;;;;20.54;58.11;101341.34;5053077;28;20029;-68
2022/06/06 00:16:52;;;;;;;12.25;9.48;;;;;;;20.53;58.27;101339.66;5051756;28;20109;-68
2022/06/06 00:19:21;;;;;;;11.15;8.95;;;;;;;20.52;58.17;101341.50;5052716;28;20099;-68
2022/06/06 00:21:47;;;;;;;11.32;8.35;;;;;;;20.52;58.19;101337.97;5052744;28;20104;-66
2022/06/06 00:24:13;;;;;;;11.73;8.82;;;;;;;20.52;58.47;101332.69;5051641;28;20036;-66
2022/06/06 00:26:39;;;;;;;12.13;8.93;;;;;;;20.51;57.96;101323.06;5052321;28;20017;-66
2022/06/06 00:29:05;;;;;;;12.65;9.10;;;;;;;20.53;58.02;101323.78;5051948;28;20159;-67
2022/06/06 00:37:02;;;;;;;10.88;8.82;;;;;;;20.50;58.05;101314.28;5051993;28;20044;-67
2022/06/06 00:39:27;;;;;;;12.20;9.50;;;;;;;20.50;58.14;101311.63;5051636;28;20018;-68
2022/06/06 00:41:55;;;;;;;10.32;8.35;;;;;;;20.50;58.08;101308.97;5053950;28;20031;-67
2022/06/06 00:44:24;;;;;;;11.55;8.10;;;;;;;20.50;58.08;101308.97;5056578;28;20025;-67
2022/06/06 00:46:59;;;;;;;10.10;8.30;;;;;;;20.49;57.91;101309.97;5055009;28;20021;-67
2022/06/06 00:49:33;;;;;;;9.55;8.02;;;;;;;20.50;57.88;101310.81;5055926;28;20033;-67
2022/06/06 00:52:02;;;;;;;10.45;8.45;;;;;;;20.48;57.85;101303.00;5055134;28;20017;-67
2022/06/06 00:54:31;;;;;;;10.23;8.20;;;;;;;20.47;58.13;101307.44;5056493;28;20032;-66
2022/06/06 00:57:02;;;;;;;10.68;8.48;;;;;;;20.46;57.90;101303.13;5056246;28;20025;-65
2022/06/06 00:59:30;;;;;;;10.82;7.65;;;;;;;20.47;57.75;101304.81;5056204;28;20029;-67
2022/06/06 01:01:57;;;;;;;10.88;8.55;;;;;;;20.46;58.14;101299.63;5056125;28;20031;-68
2022/06/06 01:04:28;;;;;;;11.45;8.45;;;;;;;20.47;58.10;101303.94;5056629;28;20021;-67
2022/06/06 01:06:54;;;;;;;10.38;8.63;;;;;;;20.46;57.94;101310.22;5055824;28;20025;-67
2022/06/06 01:09:22;;;;;;;10.77;8.10;;;;;;;20.47;57.96;101309.25;5056224;28;20105;-67
2022/06/06 01:11:52;;;;;;;11.13;8.85;;;;;;;20.45;57.73;101305.88;5056159;28;20369;-68
2022/06/06 01:14:20;;;;;;;10.82;8.27;;;;;;;20.44;57.79;101305.06;5055057;28;20059;-67
2022/06/06 01:16:57;;;;;;;10.80;8.48;;;;;;;20.45;57.80;101303.25;5055524;28;20033;-67
2022/06/06 01:19:39;;;;;;;9.95;8.55;;;;;;;20.43;57.96;101306.00;5055481;28;20449;-67
2022/06/06 01:22:34;;;;;;;11.32;8.80;;;;;;;20.44;57.89;101306.84;5054523;28;20036;-67
2022/06/06 01:25:21;;;;;;;12.07;8.82;;;;;;;20.44;57.78;101299.75;5054978;28;20036;-67
2022/06/06 01:28:11;;;;;;;12.02;9.15;;;;;;;20.44;57.72;101299.75;5054662;28;20108;-67
2022/06/06 01:30:44;;;;;;;11.55;8.52;;;;;;;20.42;57.92;101304.31;5055437;28;20025;-67
2022/06/06 01:33:14;;;;;;;11.57;8.98;;;;;;;20.44;57.99;101301.56;5054889;28;20127;-67
2022/06/06 01:35:42;;;;;;;11.70;9.30;;;;;;;20.43;58.05;101303.38;5054250;28;20052;-67
2022/06/06 01:38:11;;;;;;;10.82;8.43;;;;;;;20.42;57.94;101309.63;5055032;28;20119;-66
2022/06/06 01:40:56;;;;;;;12.55;8.85;;;;;;;20.41;57.92;101302.66;5055270;28;20071;-66
2022/06/06 01:43:46;;;;;;;11.50;8.48;;;;;;;20.42;57.99;101300.84;5054639;28;20049;-68
2022/06/06 01:46:17;;;;;;;11.00;8.63;;;;;;;20.42;57.78;101303.50;5054828;28;20029;-67
2022/06/06 01:48:43;;;;;;;10.13;8.43;;;;;;;20.42;57.79;101306.16;5054087;28;20464;-67
2022/06/06 01:51:13;;;;;;;11.18;9.00;;;;;;;20.42;57.76;101303.50;5054497;28;20550;-67
2022/06/06 01:53:39;;;;;;;11.60;8.75;;;;;;;20.40;57.97;101300.97;5053714;28;20535;-68
2022/06/06 01:56:08;;;;;;;11.70;9.27;;;;;;;20.42;57.82;101306.16;5053577;28;20029;-67
2022/06/06 01:58:34;;;;;;;11.75;8.77;;;;;;;20.42;57.86;101298.19;5055047;28;20104;-67
2022/06/06 02:01:01;;;;;;;12.82;8.82;;;;;;;20.41;57.74;101301.81;5054612;28;20067;-67
2022/06/06 02:03:27;;;;;;;11.23;8.57;;;;;;;20.41;57.82;101288.56;5054020;28;20032;-67
2022/06/06 02:05:52;;;;;;;10.63;8.50;;;;;;;20.40;57.85;101297.50;5054400;28;20354;-68
2022/06/06 02:08:19;;;;;;;11.75;8.98;;;;;;;20.39;57.85;101278.09;5054567;28;20468;-68
2022/06/06 02:10:45;;;;;;;10.18;8.38;;;;;;;20.39;57.87;101267.53;5053735;28;20029;-68
2022/06/06 02:13:14;;;;;;;11.57;8.80;;;;;;;20.39;57.94;101278.09;5054483;28;20094;-67
2022/06/06 02:15:40;;;;;;;11.07;8.63;;;;;;;20.39;57.79;101280.75;5054708;28;20052;-69
2022/06/06 02:18:05;;;;;;;11.05;8.43;;;;;;;20.39;58.05;101283.41;5052796;28;20122;-67
2022/06/06 02:20:31;;;;;;;12.00;8.50;;;;;;;20.39;57.78;101277.28;5054421;28;20350;-67
2022/06/06 02:22:58;;;;;;;10.52;7.97;;;;;;;20.39;57.66;101290.50;5053888;28;20044;-68
2022/06/06 02:25:29;;;;;;;10.27;8.13;;;;;;;20.38;57.68;101280.91;5053821;28;20024;-68
2022/06/06 02:27:54;;;;;;;11.35;8.05;;;;;;;20.38;57.66;101286.22;5054117;28;20036;-67
2022/06/06 02:30:27;;;;;;;11.25;8.88;;;;;;;20.38;57.69;101286.22;5053456;28;20024;-68
2022/06/06 02:32:52;;;;;;;11.23;8.50;;;;;;;20.38;57.56;101288.84;5054170;28;20021;-68
2022/06/06 02:35:22;;;;;;;11.13;7.80;;;;;;;20.36;57.90;101288.97;5054284;28;20564;-68
2022/06/06 02:37:49;;;;;;;11.10;7.90;;;;;;;20.37;57.79;101287.16;5053354;28;20285;-68
2022/06/06 02:40:17;;;;;;;9.88;7.43;;;;;;;20.37;57.67;101284.53;5053886;28;20055;-68
2022/06/06 02:42:43;;;;;;;10.00;7.45;;;;;;;20.37;57.80;101289.81;5053977;28;20104;-68
2022/06/06 02:45:09;;;;;;;9.85;7.70;;;;;;;20.36;57.52;101281.03;5053199;28;20064;-68
2022/06/06 02:47:36;;;;;;;11.20;7.90;;;;;;;20.36;57.88;101282.81;5053809;28;20021;-68
2022/06/06 02:50:06;;;;;;;10.93;7.85;;;;;;;20.36;57.85;101285.47;5053474;28;20087;-68
2022/06/06 02:52:33;;;;;;;11.80;7.93;;;;;;;20.36;57.78;101282.81;5052859;28;20025;-68
2022/06/06 02:54:59;;;;;;;10.88;8.23;;;;;;;20.35;57.71;101284.66;5053523;28;20025;-66
2022/06/06 02:57:24;;;;;;;11.50;7.90;;;;;;;20.35;57.70;101284.66;5053591;28;20473;-66
2022/06/06 02:59:52;;;;;;;9.80;7.67;;;;;;;20.35;57.75;101281.16;5052518;28;20111;-67
2022/06/06 03:02:17;;;;;;;10.73;7.55;;;;;;;20.34;57.52;101282.97;5053532;28;20270;-67
2022/06/06 03:04:42;;;;;;;9.30;7.47;;;;;;;20.34;57.78;101279.47;5053225;28;20066;-67
2022/06/06 03:07:09;;;;;;;11.73;8.45;;;;;;;20.34;57.63;101280.31;5052231;28;20025;-67
2022/06/06 03:10:07;;;;;;;8.98;7.55;;;;;;;20.34;57.52;101282.97;5053326;28;20488;-67
2022/06/06 03:13:00;;;;;;;10.25;7.60;;;;;;;20.34;57.70;101282.13;5052696;28;20025;-67
2022/06/06 03:20:46;;;;;;;10.35;7.65;;;;;;;20.33;57.52;101283.09;5053172;28;20040;-67
2022/06/06 03:21:54;;;;;;;10.02;7.00;;;;;;;20.32;57.77;101284.06;5052902;28;20515;-67
2022/06/06 03:24:42;;;;;;;8.85;7.32;;;;;;;20.32;57.60;101289.38;5053367;28;20025;-66
2022/06/06 03:27:15;;;;;;;9.82;7.82;;;;;;;20.32;57.48;101292.84;5052101;28;20025;-66
2022/06/06 03:30:03;;;;;;;9.52;7.53;;;;;;;20.32;57.68;101289.38;5053098;28;20084;-66
2022/06/06 03:33:06;;;;;;;11.80;8.48;;;;;;;20.30;57.58;101284.19;5053241;28;20021;-67
2022/06/06 03:35:46;;;;;;;10.00;7.95;;;;;;;20.29;57.54;101291.28;5052148;28;20102;-67
2022/06/06 03:38:27;;;;;;;10.38;7.90;;;;;;;20.29;57.57;101291.28;5052719;28;20055;-67
2022/06/06 03:41:05;;;;;;;11.30;7.82;;;;;;;20.29;57.34;101287.81;5051615;28;20036;-68
2022/06/06 03:44:03;;;;;;;11.18;7.55;;;;;;;20.28;57.44;101286.13;5052852;28;20047;-67
2022/06/06 03:46:41;;;;;;;10.05;7.63;;;;;;;20.28;57.34;101289.63;5052722;28;20036;-67
2022/06/06 03:49:22;;;;;;;11.07;7.40;;;;;;;20.28;57.49;101304.63;5051199;28;20037;-68
2022/06/06 03:52:19;;;;;;;9.68;7.30;;;;;;;20.28;57.24;101302.00;5052814;28;20057;-67
2022/06/06 03:54:56;;;;;;;9.63;7.40;;;;;;;20.27;57.38;101295.03;5051819;28;20031;-66
2022/06/06 03:57:27;;;;;;;10.00;7.30;;;;;;;20.27;57.16;101300.34;5052741;28;20082;-67
2022/06/06 04:00:00;;;;;;;9.45;7.15;;;;;;;20.27;57.35;101302.97;5058782;28;20053;-68
2022/06/06 04:02:31;;;;;;;9.98;7.40;;;;;;;20.25;57.21;101297.81;5059510;28;20025;-67
2022/06/06 04:05:06;;;;;;;9.95;7.43;;;;;;;20.25;57.17;101304.91;5052675;28;20061;-68
2022/06/06 04:07:33;;;;;;;9.00;7.07;;;;;;;20.25;57.29;101308.41;5053473;28;20025;-69
2022/06/06 04:09:59;;;;;;;9.02;6.90;;;;;;;20.24;57.09;101306.72;5054352;28;20091;-68
2022/06/06 04:12:33;;;;;;;10.10;6.85;;;;;;;20.25;57.10;101304.91;5055394;28;20021;-69
2022/06/06 04:15:38;;;;;;;8.77;6.60;;;;;;;20.25;57.23;101311.06;5052297;28;20056;-66
2022/06/06 04:18:06;;;;;;;10.00;6.97;;;;;;;20.24;57.12;101312.00;5055130;28;20472;-67
2022/06/06 04:20:42;;;;;;;8.50;6.80;;;;;;;20.23;56.98;101314.78;5056693;28;20036;-67
2022/06/06 04:23:41;;;;;;;9.60;6.63;;;;;;;20.24;57.16;101316.47;5055624;28;20028;-67
2022/06/06 04:26:43;;;;;;;9.35;7.38;;;;;;;20.23;56.92;101326.19;5056070;28;20025;-68
2022/06/06 04:29:32;;;;;;;8.43;6.22;;;;;;;20.23;57.08;101330.66;5056202;28;20614;-67
2022/06/06 04:32:27;;;;;;;9.32;6.57;;;;;;;20.22;57.00;101329.81;5055441;28;20107;-66
2022/06/06 04:35:24;;;;;;;8.93;6.40;;;;;;;20.22;56.85;101329.81;5054952;28;20059;-66
2022/06/06 04:38:20;;;;;;;8.82;6.22;;;;;;;20.21;56.87;101336.06;5055217;28;20039;-66
2022/06/06 04:40:51;;;;;;;8.23;5.85;;;;;;;20.22;56.99;101331.59;5055403;28;20044;-66
2022/06/06 04:43:25;;;;;;;9.43;6.70;;;;;;;20.21;56.70;101333.44;5056364;28;20029;-67
2022/06/06 04:46:33;;;;;;;8.38;5.97;;;;;;;20.21;56.71;101335.25;5055309;28;20443;-67
2022/06/06 04:49:00;;;;;;;7.55;6.00;;;;;;;20.19;56.88;101330.06;5055882;28;20044;-67
2022/06/06 04:51:25;;;;;;;8.18;5.72;;;;;;;20.20;56.96;101328.25;5055247;28;20389;-67
2022/06/06 04:53:56;;;;;;;7.75;5.82;;;;;;;20.20;56.83;101330.91;5055666;28;20021;-67
2022/06/06 04:56:35;;;;;;;6.70;4.85;;;;;;;20.20;56.72;101322.97;5055980;28;20017;-68
2022/06/06 04:59:01;;;;;;;8.13;5.68;;;;;;;20.19;56.94;101323.94;5054962;28;20021;-68
2022/06/06 05:01:27;;;;;;;8.30;6.10;;;;;;;20.18;56.61;101325.75;5055748;28;20036;-67
2022/06/06 05:03:53;;;;;;;7.72;5.57;;;;;;;20.19;56.72;101321.31;5055617;28;20021;-67
2022/06/06 05:06:30;;;;;;;7.57;5.55;;;;;;;20.19;56.47;101330.06;5055038;28;20032;-67
2022/06/06 05:09:24;;;;;;;8.00;5.82;;;;;;;20.17;56.46;101329.38;5056088;28;20060;-67
2022/06/06 05:12:32;;;;;;;8.00;5.45;;;;;;;20.18;56.54;101330.19;5055577;28;20044;-67
2022/06/06 05:15:25;;;;;;;8.02;5.78;;;;;;;20.18;56.46;101330.19;5055736;28;20032;-67
2022/06/06 05:17:59;;;;;;;8.13;5.68;;;;;;;20.17;56.27;101331.16;5055554;28;20052;-68
2022/06/06 05:20:42;;;;;;;8.05;5.28;;;;;;;20.18;56.08;101333.69;5054902;28;20473;-68
2022/06/06 05:23:34;;;;;;;7.88;5.75;;;;;;;20.19;56.52;101343.31;5055325;28;20701;-68
2022/06/06 05:26:22;;;;;;;9.32;5.50;;;;;;;20.19;56.47;101348.59;5055083;28;20046;-68
2022/06/06 05:28:50;;;;;;;8.40;5.78;;;;;;;20.19;56.48;101335.38;5055205;28;20029;-67
2022/06/06 05:31:36;;;;;;;7.63;5.68;;;;;;;20.19;56.20;101338.00;5055315;28;20033;-68
2022/06/06 05:34:14;;;;;;;7.15;5.80;;;;;;;20.19;56.27;101345.94;5054025;28;20045;-69
2022/06/06 05:37:04;;;;;;;7.45;5.20;;;;;;;20.19;56.06;101340.66;5054855;28;20477;-69
2022/06/06 05:39:40;;;;;;;7.40;5.80;;;;;;;20.18;56.15;101343.44;5055068;28;20599;-69
2022/06/06 05:42:44;;;;;;;7.72;5.88;;;;;;;20.19;56.34;101343.31;5054072;28;20412;-67
2022/06/06 05:45:22;;;;;;;8.40;5.60;;;;;;;20.18;56.17;101346.06;5054620;28;20504;-67
2022/06/06 05:48:06;;;;;;;7.63;5.30;;;;;;;20.18;56.03;101352.19;5054373;28;20080;-68
2022/06/06 05:50:46;;;;;;;8.27;5.68;;;;;;;20.19;56.10;101355.72;5055026;28;20416;-67
2022/06/06 05:53:11;;;;;;;7.15;5.38;;;;;;;20.18;55.99;101349.56;5054518;28;20134;-68
2022/06/06 05:55:51;;;;;;;7.33;5.37;;;;;;;20.19;55.89;101355.72;5053843;28;20104;-68
2022/06/06 05:58:54;;;;;;;6.97;5.43;;;;;;;20.18;56.03;101351.38;5054622;28;20491;-66
2022/06/06 06:01:28;;;;;;;6.80;5.07;;;;;;;20.17;55.78;101347.91;5053811;28;20029;-67
2022/06/06 06:04:00;;;;;;;7.70;5.35;;;;;;;20.18;56.01;101349.56;5054350;28;20029;-68
2022/06/06 06:06:42;;;;;;;9.68;5.50;;;;;;;20.20;55.77;101352.94;5054830;28;20048;-67
2022/06/06 06:09:22;;;;;;;7.75;5.18;;;;;;;20.22;55.54;101348.34;5053552;28;20052;-67
2022/06/06 06:11:59;;;;;;;7.03;5.32;;;;;;;20.22;55.83;101353.66;5054449;28;20112;-68
2022/06/06 06:14:59;;;;;;;6.78;4.85;;;;;;;20.23;55.49;101352.66;5054226;28;20041;-69
2022/06/06 06:17:26;;;;;;;6.60;4.97;;;;;;;20.25;55.58;101348.09;5053670;28;20136;-69
2022/06/06 06:20:33;;;;;;;6.25;5.40;;;;;;;20.28;55.70;101350.50;5054130;28;20049;-64
2022/06/06 06:23:04;;;;;;;6.03;4.57;;;;;;;20.30;55.96;101351.19;4953117;29;20038;-65
2022/06/06 06:25:33;;;;;;;7.68;4.70;;;;;;;20.31;55.83;101352.03;5041249;28;20090;-68
2022/06/06 06:28:05;;;;;;;6.40;4.45;;;;;;;20.35;56.05;101360.59;5053681;28;20381;-67
2022/06/06 06:30:51;;;;;;;6.22;4.72;;;;;;;20.38;56.11;101362.97;5053451;28;20029;-67
2022/06/06 06:33:38;;;;;;;8.82;4.93;;;;;;;20.41;55.62;101373.28;5053890;28;20594;-71
2022/06/06 06:36:29;;;;;;;6.93;4.32;;;;;;;20.43;55.71;101374.03;5053787;28;20040;-58
2022/06/06 06:39:13;;;;;;;6.03;4.43;;;;;;;20.42;56.08;101367.88;5053222;28;20036;-62
2022/06/06 06:41:59;;;;;;;7.18;4.80;;;;;;;20.44;55.91;101367.72;5053981;28;20029;-66
2022/06/06 06:44:33;;;;;;;8.88;4.10;;;;;;;20.44;55.72;101370.38;5053111;28;20132;-66
2022/06/06 06:47:10;;;;;;;7.70;4.03;;;;;;;20.43;55.75;101374.03;5053451;28;20103;-66
2022/06/06 06:49:45;;;;;;;13.18;5.38;;;;;;;20.47;55.83;101375.44;5053582;28;20047;-65
2022/06/06 06:52:26;;;;;;;6.78;4.32;;;;;;;20.45;55.72;101391.44;5052557;28;20039;-67
2022/06/06 06:55:27;;;;;;;7.18;3.75;;;;;;;20.47;55.61;101388.66;5053414;28;20083;-69
2022/06/06 06:58:30;;;;;;;6.50;4.05;;;;;;;20.50;55.70;101377.00;5052397;28;20047;-70
2022/06/06 07:01:05;;;;;;;7.20;3.50;;;;;;;20.52;55.48;101385.63;4952986;29;20039;-70
2022/06/06 07:09:37;;;;;;;4.82;3.00;;;;;;;20.64;53.15;101347.56;5090517;27;20410;-68
2022/06/06 07:12:25;;;;;;;5.68;2.50;;;;;;;20.72;52.41;101347.78;5089127;28;20138;-68
2022/06/06 07:15:02;;;;;;;7.85;2.72;;;;;;;20.79;51.80;101341.00;5089788;28;20028;-68
2022/06/06 07:17:33;;;;;;;4.30;2.50;;;;;;;20.87;51.21;101347.44;5090284;28;20033;-68
2022/06/06 12:35:21;;;;;;;5.30;1.20;;;;;;;21.17;53.08;101262.66;5131593;27;20399;-67
2022/06/06 12:38:20;;;;;;;5.53;1.30;;;;;;;21.19;52.72;101262.53;5130838;28;20106;-68
2022/06/06 12:41:07;;;;;;;5.53;1.20;;;;;;;21.22;52.81;101264.06;5131228;27;20462;-68
2022/06/06 12:43:50;;;;;;;4.43;1.50;;;;;;;21.22;52.90;101262.25;5131682;28;20054;-68
2022/06/06 12:46:53;;;;;;;4.60;2.45;;;;;;;21.23;53.00;101266.56;5130600;28;20023;-68
2022/06/06 12:51:12;;;;;;;7.43;1.50;;;;;;;21.28;53.88;101272.28;5111234;27;20408;-73
2022/06/06 12:54:11;;;;;;;5.32;1.20;;;;;;;21.29;54.07;101263.38;5068227;28;20116;-72
2022/06/06 12:56:48;;;;;;;5.40;1.55;;;;;;;21.27;54.27;101262.69;5111335;28;20036;-74
2022/06/06 12:59:33;;;;;;;4.78;1.20;;;;;;;21.29;54.39;101265.19;5110449;28;20103;-71
2022/06/06 13:02:49;;;;;;;6.85;1.90;;;;;;;21.28;54.52;101263.50;5111185;28;20032;-80
2022/06/06 13:05:44;;;;;;;4.47;1.45;;;;;;;21.28;54.82;101264.34;5110954;28;20040;-71
2022/06/06 13:08:38;;;;;;;7.00;1.38;;;;;;;21.26;54.67;101284.84;5111039;28;20408;-73
2022/06/06 13:11:22;;;;;;;6.22;1.50;;;;;;;21.28;54.80;101284.72;5111096;28;20024;-71
2022/06/06 13:14:20;;;;;;;5.45;1.52;;;;;;;21.27;55.02;101285.69;5110337;28;20028;-72
2022/06/06 13:17:21;;;;;;;6.47;1.30;;;;;;;21.28;55.17;101301.44;5089159;28;20032;-71
2022/06/06 13:20:10;;;;;;;3.92;1.30;;;;;;;21.27;55.35;101294.50;5072816;28;20036;-71
2022/06/06 13:22:36;;;;;;;7.35;1.70;;;;;;;21.27;55.37;101281.25;5110859;28;20043;-71
2022/06/06 13:25:23;;;;;;;4.70;1.42;;;;;;;21.28;55.61;101279.41;5110850;28;20028;-71
2022/06/06 13:27:51;;;;;;;6.20;1.60;;;;;;;21.29;55.87;101287.25;5110067;28;20047;-72
2022/06/06 13:30:27;;;;;;;4.28;1.20;;;;;;;21.30;55.81;101274.81;5110589;28;20085;-71
2022/06/06 13:33:07;;;;;;;7.05;1.60;;;;;;;21.29;56.08;101259.91;5110552;28;20024;-71
2022/06/06 13:35:46;;;;;;;4.00;1.63;;;;;;;21.30;55.85;101267.72;5109907;28;20524;-73
2022/06/06 13:38:30;;;;;;;4.80;1.25;;;;;;;21.30;55.65;101269.50;5110903;28;20106;-72
2022/06/06 13:41:11;;;;;;;6.90;1.27;;;;;;;21.30;55.50;101272.16;5109756;28;20096;-72
2022/06/06 13:43:56;;;;;;;4.03;1.42;;;;;;;21.29;55.67;101273.97;5110480;28;20027;-72
2022/06/06 13:46:46;;;;;;;6.53;1.30;;;;;;;21.29;55.68;101276.63;5110309;28;20520;-72
2022/06/06 13:49:41;;;;;;;4.80;1.30;;;;;;;21.30;55.47;101280.13;5109371;28;20039;-71
2022/06/06 13:52:18;;;;;;;5.45;1.30;;;;;;;21.29;55.52;101289.88;5110090;28;20020;-69
2022/06/06 13:54:44;;;;;;;4.07;1.10;;;;;;;21.27;55.48;101283.03;5108614;28;20036;-69
2022/06/06 13:57:32;;;;;;;5.15;1.58;;;;;;;21.30;55.66;101293.38;5110390;28;20097;-69
2022/06/06 14:00:07;;;;;;;6.15;1.40;;;;;;;21.29;55.59;101289.06;5107892;28;20073;-70
2022/06/06 14:02:41;;;;;;;3.42;1.00;;;;;;;21.30;55.67;101283.63;5095829;28;20024;-71
2022/06/06 14:05:44;;;;;;;5.25;1.30;;;;;;;21.30;55.65;101285.41;5096573;28;20036;-69
2022/06/06 14:08:20;;;;;;;3.83;1.23;;;;;;;21.30;56.14;101280.13;5054311;28;20531;-70
2022/06/06 14:10:51;;;;;;;5.07;1.75;;;;;;;21.28;56.01;101280.25;5053520;28;20040;-69
2022/06/06 14:13:38;;;;;;;5.18;1.50;;;;;;;21.30;56.22;101282.75;5077646;28;20039;-69
2022/06/06 14:16:16;;;;;;;4.13;1.38;;;;;;;21.29;56.21;101289.88;5095515;28;20028;-71
2022/06/06 14:18:42;;;;;;;6.57;1.40;;;;;;;21.29;56.27;101281.94;5096485;28;20024;-70
2022/06/06 14:21:07;;;;;;;4.95;1.10;;;;;;;21.30;56.05;101288.06;5096247;28;20024;-70
2022/06/06 14:23:38;;;;;;;3.88;1.10;;;;;;;21.29;56.27;101286.41;5095371;28;20020;-71
2022/06/06 14:26:06;;;;;;;4.45;1.30;;;;;;;21.29;56.39;101287.25;5096258;28;20523;-69
2022/06/06 14:28:39;;;;;;;4.72;1.25;;;;;;;21.30;56.32;101288.94;5096079;28;20053;-68
2022/06/06 14:31:32;;;;;;;3.70;1.27;;;;;;;21.30;56.72;101283.63;5095096;28;20374;-70
2022/06/06 14:34:00;;;;;;;4.88;1.40;;;;;;;21.30;56.72;101299.53;5096058;28;20044;-70
2022/06/06 14:36:27;;;;;;;3.42;1.10;;;;;;;21.30;56.38;101296.03;5095768;28;20032;-69
2022/06/06 14:39:00;;;;;;;3.42;1.40;;;;;;;21.30;56.60;101306.63;5095293;28;20058;-69
2022/06/06 14:41:34;;;;;;;4.00;1.42;;;;;;;21.30;56.26;101304.84;5095324;28;20086;-70
2022/06/06 14:44:03;;;;;;;5.28;1.10;;;;;;;21.29;56.49;101302.31;5095000;28;20043;-70
2022/06/06 14:46:44;;;;;;;4.07;1.20;;;;;;;21.29;56.40;101297.84;5095616;28;20024;-69
2022/06/06 14:49:10;;;;;;;5.50;1.30;;;;;;;21.30;56.33;101298.66;5095281;28;20070;-70
2022/06/06 14:51:42;;;;;;;3.13;1.30;;;;;;;21.30;56.15;101296.03;5094822;28;20024;-70
2022/06/06 14:54:14;;;;;;;4.60;1.63;;;;;;;21.29;56.40;101300.50;5095452;28;20467;-70
2022/06/06 14:56:52;;;;;;;3.90;1.42;;;;;;;21.29;56.29;101297.84;5095418;28;20032;-71
2022/06/06 14:59:21;;;;;;;4.88;1.20;;;;;;;21.31;56.71;101311.78;5094528;28;20020;-70
2022/06/06 15:01:48;;;;;;;5.80;1.30;;;;;;;21.30;56.56;101298.66;5095378;28;20020;-69
2022/06/06 15:04:21;;;;;;;3.47;1.50;;;;;;;21.31;56.67;101305.66;5095173;28;20016;-68
2022/06/06 15:06:58;;;;;;;3.95;1.10;;;;;;;21.30;56.48;101314.56;5094579;28;20028;-69
2022/06/06 15:09:45;;;;;;;3.67;1.58;;;;;;;21.31;56.82;101308.31;5095215;28;20031;-72
2022/06/06 15:12:25;;;;;;;4.95;1.35;;;;;;;21.30;56.80;101299.53;5093515;28;20031;-72
2022/06/06 15:14:56;;;;;;;5.15;1.35;;;;;;;21.29;56.63;101300.50;5095094;28;20524;-71
2022/06/06 15:17:21;;;;;;;4.22;1.20;;;;;;;21.29;56.68;101308.44;5095047;28;20024;-70
2022/06/06 15:19:51;;;;;;;5.05;1.30;;;;;;;21.31;56.79;101314.44;5094269;28;20030;-70
2022/06/06 15:22:35;;;;;;;5.88;1.30;;;;;;;21.29;56.53;101321.69;5094972;28;20051;-69
2022/06/06 15:25:01;;;;;;;5.85;1.50;;;;;;;21.30;56.73;101327.81;5094997;28;20027;-70
2022/06/06 15:27:38;;;;;;;4.25;1.30;;;;;;;21.32;56.38;101331.22;5094095;28;20489;-72
2022/06/06 15:30:51;;;;;;;4.00;1.10;;;;;;;21.29;55.97;101332.31;5094800;28;20517;-72
2022/06/06 15:33:36;;;;;;;4.50;1.30;;;;;;;21.29;56.17;101342.91;5051452;28;20025;-72
2022/06/06 15:36:36;;;;;;;3.65;1.13;;;;;;;21.29;55.77;101336.78;5052402;28;20526;-71
2022/06/06 15:39:24;;;;;;;4.05;1.27;;;;;;;21.28;55.53;101346.53;5089755;28;20097;-69
2022/06/06 15:41:58;;;;;;;4.53;1.10;;;;;;;21.27;55.37;101339.56;5093906;28;20028;-70
2022/06/06 15:44:38;;;;;;;3.80;1.00;;;;;;;21.28;55.51;101335.91;5094634;28;20398;-70
2022/06/06 15:47:13;;;;;;;3.53;1.23;;;;;;;21.28;55.26;101337.75;5094183;28;20028;-70
2022/06/06 15:50:16;;;;;;;4.35;1.20;;;;;;;21.27;55.27;101339.56;5094240;28;20131;-70
2022/06/06 15:53:19;;;;;;;3.28;1.23;;;;;;;21.27;55.32;101339.56;5094226;28;20530;-70
2022/06/06 15:56:03;;;;;;;5.47;1.20;;;;;;;21.27;55.34;101330.75;5093451;28;20363;-72
2022/06/06 15:58:55;;;;;;;2.08;1.10;;;;;;;21.26;55.41;101327.25;5094134;28;20522;-71
2022/06/06 16:01:48;;;;;;;3.38;1.20;;;;;;;21.26;55.27;101332.56;5093591;28;20036;-70
2022/06/06 16:04:49;;;;;;;3.08;1.20;;;;;;;21.26;55.19;101329.09;5094406;28;20089;-71
2022/06/06 16:07:23;;;;;;;3.05;1.00;;;;;;;21.26;54.99;101324.63;5084712;28;20029;-69
2022/06/06 16:10:02;;;;;;;2.28;1.08;;;;;;;21.26;55.38;101327.25;5093035;28;20032;-68
2022/06/06 16:12:56;;;;;;;2.92;1.05;;;;;;;21.27;55.24;101330.75;5092639;28;20047;-70
2022/06/06 16:15:22;;;;;;;3.80;1.20;;;;;;;21.26;55.13;101318.47;5093043;28;20028;-70
2022/06/06 16:17:56;;;;;;;4.03;1.30;;;;;;;21.26;55.07;101331.75;5094032;28;20028;-70
2022/06/06 16:20:32;;;;;;;3.60;1.10;;;;;;;21.26;55.47;101326.44;5093918;28;20428;-70
2022/06/06 16:23:05;;;;;;;2.35;1.10;;;;;;;21.26;55.28;101327.25;5092851;28;20458;-71
2022/06/06 16:25:48;;;;;;;3.00;1.38;;;;;;;21.26;55.01;101323.78;5093995;28;20065;-70
2022/06/06 16:28:18;;;;;;;3.50;1.20;;;;;;;21.25;55.03;101320.28;5093860;28;20032;-70
2022/06/06 16:30:50;;;;;;;4.05;1.45;;;;;;;21.25;54.94;101322.94;5092908;28;20020;-71
2022/06/06 16:33:20;;;;;;;4.38;1.45;;;;;;;21.25;55.09;101319.44;5093853;28;20024;-71
2022/06/06 16:36:08;;;;;;;4.00;1.35;;;;;;;21.24;55.02;101318.63;5093527;28;20024;-71
2022/06/06 16:38:45;;;;;;;2.92;1.20;;;;;;;21.25;55.47;101319.44;5092326;28;20024;-69
2022/06/06 16:41:12;;;;;;;4.25;1.40;;;;;;;21.23;55.52;101322.22;5092797;28;20069;-69
2022/06/06 16:49:55;;;;;;;4.50;1.60;;;;;;;21.24;55.27;101326.56;5093595;28;20112;-69
2022/06/06 16:52:42;;;;;;;3.88;1.30;;;;;;;21.23;55.28;101324.88;5092534;28;20024;-70
2022/06/06 16:55:23;;;;;;;3.60;1.40;;;;;;;21.23;55.23;101329.34;5092378;28;20399;-70
2022/06/06 16:57:55;;;;;;;4.03;1.42;;;;;;;21.21;55.12;101337.44;5091606;28;20028;-69
2022/06/06 17:01:00;;;;;;;6.20;1.50;;;;;;;21.23;55.07;101337.31;5092968;28;20063;-69
2022/06/06 17:03:32;;;;;;;;;;;;;;;21.21;55.03;101342.75;5093191;28;20386;-69
2022/06/06 17:09:13;;;;;;;;;;;;;;;21.20;54.92;101359.59;5093038;28;20035;-70
2022/06/06 17:11:47;;;;;;;2.75;1.30;;;;;;;21.20;54.81;101364.91;5091846;28;19919;-70
2022/06/06 17:14:21;;;;;;;3.13;1.30;;;;;;;21.20;54.82;101378.16;5092429;28;20468;-70
2022/06/06 17:17:04;;;;;;;3.25;1.30;;;;;;;21.18;54.87;101383.59;5092331;28;20027;-70
2022/06/06 17:19:36;;;;;;;3.25;1.40;;;;;;;21.19;54.91;101382.63;5091734;28;20043;-70
2022/06/06 17:22:04;;;;;;;4.20;1.40;;;;;;;21.19;54.90;101387.09;5092627;28;20032;-71
2022/06/06 17:24:45;;;;;;;3.05;1.33;;;;;;;21.18;54.98;101378.28;5092310;28;20020;-69
2022/06/06 17:27:13;;;;;;;2.80;1.17;;;;;;;21.18;54.73;101385.41;5091736;28;20493;-69
2022/06/06 17:29:50;;;;;;;4.00;1.40;;;;;;;21.17;54.65;101378.41;5092277;28;20032;-70
2022/06/06 17:32:21;;;;;;;3.35;1.17;;;;;;;21.16;54.71;101385.53;5092227;28;20020;-70
2022/06/06 17:35:24;;;;;;;3.55;1.15;;;;;;;21.17;54.56;101384.59;5091483;28;20020;-71
2022/06/06 17:38:04;;;;;;;3.40;1.20;;;;;;;21.17;54.70;101387.22;5095728;28;20028;-70
2022/06/06 17:40:34;;;;;;;2.85;1.00;;;;;;;21.17;54.23;101389.88;5095212;28;20031;-70
2022/06/06 17:43:07;;;;;;;3.33;1.27;;;;;;;21.16;54.71;101398.78;5096163;28;20505;-70
2022/06/06 17:46:04;;;;;;;2.92;1.27;;;;;;;21.16;54.80;101397.97;5095829;28;20035;-70
2022/06/06 17:48:38;;;;;;;3.25;1.30;;;;;;;21.16;54.92;101397.97;5094964;28;20108;-70
2022/06/06 17:51:30;;;;;;;2.70;1.30;;;;;;;21.15;54.60;101399.75;5095984;28;20390;-71
2022/06/06 17:54:27;;;;;;;2.75;1.10;;;;;;;21.16;54.54;101408.56;5095027;28;20570;-71
2022/06/06 17:57:24;;;;;;;2.67;1.05;;;;;;;21.15;54.65;101406.88;5095723;28;20035;-72